Main page
METAR-TAF:

METAR-TAF

Airports :

Macaé Airport

Macaé, Rio de Janeiro, Brazil

latitude: 22-21S, longitude: 041-46W, elevation: 2 m

Current weather observation

The report was made 2 hours and 13 minutes ago, at 21:00 UTC
Wind 10 kt from the Northeast
Temperature 26°C
Humidity 84%
Pressure 1013 hPa
Visibility 10 km or more
Few clouds at a height of 4000 ft

METAR: SBME 202100Z 04010KT 9999 FEW040 26/23 Q1013

Time: 20:13 (23:13 UTC)

Forecast

The report was made 8 hours and 13 minutes ago, at 15:00 UTC
Forecast valid from 20 at 18 UTC to 21 at 06 UTC
Wind 10 kt from the East
Visibility 10 km or more
Few clouds at a height of 3000 ft
Becoming
from 20 at 20 UTC to 20 at 22 UTC
Wind 10 kt from the East/Northeast
Becoming
from 20 at 23 UTC to 21 at 01 UTC
Wind 5 kt from the North/Northeast

TAF: SBME 201500Z 2018/2106 09010KT 9999 FEW030 TX28/2018Z TN21/2106Z BECMG 2020/2022 06010KT BECMG 2023/2101 02005KT RMK PHD

Weather observations and forecasts of more than 4000 airports (METAR and TAF reports).

The available stations are represented by yellow and red dots on the map.

Hover mouse over dot to see the name of the station.

Then click to see weather observations and forecasts.

To change the map : click on the green buttons with a black cross to zoom in, on the green button with a dash to zoom out, or on the green arrows for adjacent maps.


METAR-TAF: